Manitou Springs, Colorado
Current Conditions -  °F | °C
As of 8:56 PM on Saturday 20 Dec 2014 (Local Time) from KCWN Reporting Station
Broken Clouds Broken Clouds  
Wind Chill: 37°   Ceiling: 11000
Heat Index: 37°   Visibility: 10mi
Dew Point: 18°   Wind: 3mph
Humidity: 47%   Direction: 360°N
Pressure: 29.93"   Gusts: NA
Location:  38.86°N, 104.92°W
Report Text: KCWN 210356Z AUTO 36003KT 10SM FEW070 BKN110 03/M08 A2993 RMK AO2 SLP138 T00251077
Loading
Personal Weather Stations






























Interactive Weather Map New forecast layout! Learn more

10-Day Weather Forecast

Advertisements
Track Severe Weather on mobile